Time;durP1;ratioP1;P1;durP2;ratioP2;P2;SDS_P1;SDS_P2;PMS_P1;PMS_P2;Temp;Humidity;BMP_temperature;BMP_pressure;BME280_temperature;BME280_humidity;BME280_pressure;Samples;Min_cycle;Max_cycle;Signal;HPM_P1;HPM_P2
2021/07/29 00:00:55;;;;;;;;;;;12.50;99.90;;;;;;5075234;28;20380;-87
2021/07/29 00:03:22;;;;;;;;;;;12.50;99.90;;;;;;5074971;28;19947;-86
2021/07/29 00:05:49;;;;;;;;;;;12.60;99.90;;;;;;5074973;28;19944;-88
2021/07/29 00:08:16;;;;;;;;;;;12.60;99.90;;;;;;5075070;28;19964;-87
2021/07/29 00:10:45;;;;;;;;;;;12.60;99.90;;;;;;5074351;28;20197;-87
2021/07/29 00:13:12;;;;;;;;;;;12.60;99.90;;;;;;5075168;28;19951;-87
2021/07/29 00:15:39;;;;;;;;;;;12.50;99.90;;;;;;5075152;28;19947;-87
2021/07/29 00:20:52;;;;;;;;;;;12.60;99.90;;;;;;5075157;28;20341;-87
2021/07/29 00:23:18;;;;;;;;;;;12.60;99.90;;;;;;5074935;28;20288;-87
2021/07/29 00:25:45;;;;;;;;;;;12.60;99.90;;;;;;5074733;28;20364;-86
2021/07/29 00:28:12;;;;;;;;;;;12.60;99.90;;;;;;5074762;28;20277;-87
2021/07/29 00:30:39;;;;;;;;;;;12.60;99.90;;;;;;5074755;28;20345;-86
2021/07/29 00:33:08;;;;;;;;;;;12.60;99.90;;;;;;5074744;28;19946;-86
2021/07/29 00:35:35;;;;;;;;;;;12.60;99.90;;;;;;5074921;28;20003;-86
2021/07/29 00:38:02;;;;;;;;;;;12.60;99.90;;;;;;5074828;28;19939;-86
2021/07/29 00:40:29;;;;;;;;;;;12.60;99.90;;;;;;5074688;28;19936;-87
2021/07/29 00:42:56;;;;;;;;;;;12.60;99.90;;;;;;5075061;28;19925;-86
2021/07/29 00:45:23;;;;;;;;;;;12.60;99.90;;;;;;5074574;28;20019;-86
2021/07/29 00:47:50;;;;;;;;;;;12.70;99.90;;;;;;5074571;28;19924;-86
2021/07/29 00:50:18;;;;;;;;;;;12.70;99.90;;;;;;5074614;28;20011;-86
2021/07/29 00:52:46;;;;;;;;;;;12.70;99.90;;;;;;5074701;28;19935;-86
2021/07/29 00:55:13;;;;;;;;;;;12.70;99.90;;;;;;5074673;28;19982;-86
2021/07/29 00:57:40;;;;;;;;;;;12.70;99.90;;;;;;5073646;28;19924;-86
2021/07/29 01:00:07;;;;;;;;;;;12.70;99.90;;;;;;5074599;28;19934;-86
2021/07/29 01:02:34;;;;;;;;;;;12.70;99.90;;;;;;5076385;28;20273;-86
2021/07/29 01:05:01;;;;;;;;;;;12.70;99.90;;;;;;5078257;28;20376;-87
2021/07/29 01:07:29;;;;;;;;;;;12.70;99.90;;;;;;5077897;28;19925;-86
2021/07/29 01:09:56;;;;;;;;;;;12.70;99.90;;;;;;5078220;28;19924;-87
2021/07/29 01:12:23;;;;;;;;;;;12.80;99.90;;;;;;5078170;28;19935;-86
2021/07/29 01:14:49;;;;;;;;;;;12.80;99.90;;;;;;5077996;28;19924;-86
2021/07/29 01:17:16;;;;;;;;;;;12.80;99.90;;;;;;5078156;28;19925;-86
2021/07/29 01:19:43;;;;;;;;;;;12.80;99.90;;;;;;5077735;28;19978;-86
2021/07/29 01:22:11;;;;;;;;;;;12.80;99.90;;;;;;5077749;28;19925;-86
2021/07/29 01:24:38;;;;;;;;;;;12.80;99.90;;;;;;5077648;28;19924;-87
2021/07/29 01:27:05;;;;;;;;;;;12.80;99.90;;;;;;5077525;28;19931;-87
2021/07/29 01:29:32;;;;;;;;;;;12.80;99.90;;;;;;5078147;28;19934;-86
2021/07/29 01:31:59;;;;;;;;;;;12.90;99.90;;;;;;5077826;28;19924;-87
2021/07/29 01:34:26;;;;;;;;;;;12.80;99.90;;;;;;5077755;28;19924;-86
2021/07/29 01:36:53;;;;;;;;;;;12.90;99.90;;;;;;5077696;28;19924;-86
2021/07/29 01:39:21;;;;;;;;;;;12.90;99.90;;;;;;5077419;28;19930;-86
2021/07/29 01:41:48;;;;;;;;;;;12.90;99.90;;;;;;5077428;28;19934;-86
2021/07/29 01:44:14;;;;;;;;;;;12.90;99.90;;;;;;5077350;28;19924;-86
2021/07/29 01:46:41;;;;;;;;;;;12.90;99.90;;;;;;5077272;28;19928;-87
2021/07/29 01:49:08;;;;;;;;;;;12.90;99.90;;;;;;5077309;28;19925;-86
2021/07/29 01:51:35;;;;;;;;;;;12.90;99.90;;;;;;5077560;28;19924;-87
2021/07/29 01:54:02;;;;;;;;;;;12.90;99.90;;;;;;5077356;28;19929;-86
2021/07/29 01:56:30;;;;;;;;;;;12.90;99.90;;;;;;5077162;28;19931;-86
2021/07/29 01:58:57;;;;;;;;;;;12.90;99.90;;;;;;5077219;28;19925;-86
2021/07/29 02:01:24;;;;;;;;;;;12.90;99.90;;;;;;5077251;28;19935;-86
2021/07/29 02:03:51;;;;;;;;;;;12.90;99.90;;;;;;5077063;28;19967;-86
2021/07/29 02:06:18;;;;;;;;;;;12.90;99.90;;;;;;5077011;28;19931;-87
2021/07/29 02:08:45;;;;;;;;;;;12.80;99.90;;;;;;5077114;28;19928;-86
2021/07/29 02:11:11;;;;;;;;;;;12.90;99.90;;;;;;5076826;28;19929;-86
2021/07/29 02:13:40;;;;;;;;;;;12.80;99.90;;;;;;5076975;28;19951;-87
2021/07/29 02:16:10;;;;;;;;;;;12.80;99.90;;;;;;5076949;28;19925;-86
2021/07/29 02:18:37;;;;;;;;;;;12.80;99.90;;;;;;5076846;28;20007;-87
2021/07/29 02:21:07;;;;;;;;;;;12.80;99.90;;;;;;5076766;28;19924;-86
2021/07/29 02:23:34;;;;;;;;;;;12.80;99.90;;;;;;5076667;28;19924;-86
2021/07/29 02:26:01;;;;;;;;;;;12.80;99.90;;;;;;5076786;28;19928;-86
2021/07/29 02:28:28;;;;;;;;;;;12.90;99.90;;;;;;5076803;28;20272;-86
2021/07/29 02:30:56;;;;;;;;;;;12.90;99.90;;;;;;5076658;28;19924;-87
2021/07/29 02:33:23;;;;;;;;;;;12.90;99.90;;;;;;5076409;28;19935;-86
2021/07/29 02:35:50;;;;;;;;;;;12.90;99.90;;;;;;5076437;28;19935;-86
2021/07/29 02:38:17;;;;;;;;;;;12.90;99.90;;;;;;5076546;28;19924;-86
2021/07/29 02:40:44;;;;;;;;;;;12.80;99.90;;;;;;5076603;28;19935;-86
2021/07/29 02:43:11;;;;;;;;;;;12.80;99.90;;;;;;5076460;28;19924;-86
2021/07/29 02:45:37;;;;;;;;;;;12.80;99.90;;;;;;5076120;28;20261;-86
2021/07/29 02:48:06;;;;;;;;;;;12.80;99.90;;;;;;5076014;28;19924;-86
2021/07/29 02:50:33;;;;;;;;;;;12.80;99.90;;;;;;5076049;28;20288;-86
2021/07/29 02:53:00;;;;;;;;;;;12.70;99.90;;;;;;5075966;28;20002;-86
2021/07/29 02:55:26;;;;;;;;;;;12.70;99.90;;;;;;5075912;28;19930;-86
2021/07/29 02:57:53;;;;;;;;;;;12.70;99.90;;;;;;5076363;28;19924;-86
2021/07/29 03:00:20;;;;;;;;;;;12.70;99.90;;;;;;5076019;28;20062;-86
2021/07/29 03:02:47;;;;;;;;;;;12.70;99.90;;;;;;5075925;28;19924;-86
2021/07/29 03:05:15;;;;;;;;;;;12.70;99.90;;;;;;5075951;28;19931;-84
2021/07/29 03:07:42;;;;;;;;;;;12.70;99.90;;;;;;5075620;28;19935;-86
2021/07/29 03:10:09;;;;;;;;;;;12.70;99.90;;;;;;5075626;28;19925;-85
2021/07/29 03:12:36;;;;;;;;;;;12.70;99.90;;;;;;5075946;28;19924;-86
2021/07/29 03:15:03;;;;;;;;;;;12.80;99.90;;;;;;5075925;28;19925;-80
2021/07/29 03:17:30;;;;;;;;;;;12.80;99.90;;;;;;5075671;28;19934;-78
2021/07/29 03:19:57;;;;;;;;;;;12.80;99.90;;;;;;5075519;28;20257;-79
2021/07/29 03:22:25;;;;;;;;;;;12.80;99.90;;;;;;5074713;28;20151;-84
2021/07/29 03:24:52;;;;;;;;;;;12.90;99.90;;;;;;5075299;28;19928;-85
2021/07/29 03:27:19;;;;;;;;;;;12.80;99.90;;;;;;5075560;28;19943;-84
2021/07/29 03:29:46;;;;;;;;;;;12.90;99.90;;;;;;5075616;28;20258;-90
2021/07/29 03:32:13;;;;;;;;;;;12.90;99.90;;;;;;5075592;28;19976;-90
2021/07/29 03:34:39;;;;;;;;;;;12.90;99.90;;;;;;5075739;28;19931;-90
2021/07/29 03:37:06;;;;;;;;;;;12.90;99.90;;;;;;5075839;28;20023;-90
2021/07/29 03:39:35;;;;;;;;;;;12.90;99.90;;;;;;5076155;28;19925;-91
2021/07/29 03:42:02;;;;;;;;;;;12.80;99.90;;;;;;5075934;28;19935;-91
2021/07/29 03:44:28;;;;;;;;;;;12.90;99.90;;;;;;5075516;28;19931;-89
2021/07/29 03:46:55;;;;;;;;;;;12.90;99.90;;;;;;5075408;28;19924;-90
2021/07/29 03:49:22;;;;;;;;;;;12.80;99.90;;;;;;5075774;28;19928;-90
2021/07/29 03:51:49;;;;;;;;;;;12.80;99.90;;;;;;5075424;28;19931;-90
2021/07/29 03:54:16;;;;;;;;;;;12.80;99.90;;;;;;5075410;28;19925;-89
2021/07/29 03:56:45;;;;;;;;;;;12.70;99.90;;;;;;5075238;28;20363;-90
2021/07/29 03:59:12;;;;;;;;;;;12.70;99.90;;;;;;5075750;28;19934;-90
2021/07/29 04:01:38;;;;;;;;;;;12.70;99.90;;;;;;5075393;28;19924;-89
2021/07/29 04:04:05;;;;;;;;;;;12.70;99.90;;;;;;5075208;28;19924;-89
2021/07/29 04:06:32;;;;;;;;;;;12.70;99.90;;;;;;5075484;28;19939;-89
2021/07/29 04:08:59;;;;;;;;;;;12.70;99.90;;;;;;5075047;28;19925;-89
2021/07/29 04:11:26;;;;;;;;;;;12.70;99.90;;;;;;5075151;28;19925;-89
2021/07/29 04:13:54;;;;;;;;;;;12.60;99.90;;;;;;5075241;28;20276;-90
2021/07/29 04:16:21;;;;;;;;;;;12.60;99.90;;;;;;5075275;28;19983;-89
2021/07/29 04:18:48;;;;;;;;;;;12.60;99.90;;;;;;5075013;28;19924;-89
2021/07/29 04:21:15;;;;;;;;;;;12.60;99.90;;;;;;5075247;28;19925;-89
2021/07/29 04:23:42;;;;;;;;;;;12.60;99.90;;;;;;5075178;28;19924;-89
2021/07/29 04:26:09;;;;;;;;;;;12.70;99.90;;;;;;5075196;28;19937;-88
2021/07/29 04:28:36;;;;;;;;;;;12.60;99.90;;;;;;5074978;28;19930;-88
2021/07/29 04:31:04;;;;;;;;;;;12.60;99.90;;;;;;5074937;28;19947;-90
2021/07/29 04:33:31;;;;;;;;;;;12.60;99.90;;;;;;5075050;28;19929;-89
2021/07/29 04:35:58;;;;;;;;;;;12.70;99.90;;;;;;5076200;28;19924;-88
2021/07/29 04:38:25;;;;;;;;;;;12.70;99.90;;;;;;5079053;28;19924;-88
2021/07/29 04:41:01;;;;;;;;;;;12.70;99.90;;;;;;5078642;28;19931;-89
2021/07/29 04:43:27;;;;;;;;;;;12.70;99.90;;;;;;5078726;28;19924;-89
2021/07/29 04:45:54;;;;;;;;;;;12.70;99.90;;;;;;5078851;28;19938;-89
2021/07/29 04:48:23;;;;;;;;;;;12.70;99.90;;;;;;5078551;28;19931;-89
2021/07/29 04:50:49;;;;;;;;;;;12.70;99.90;;;;;;5078606;28;19924;-89
2021/07/29 04:53:16;;;;;;;;;;;12.70;99.90;;;;;;5078617;28;19935;-89
2021/07/29 04:55:43;;;;;;;;;;;12.70;99.90;;;;;;5078409;28;19935;-89
2021/07/29 04:58:10;;;;;;;;;;;12.70;99.90;;;;;;5078492;28;19942;-89
2021/07/29 05:00:37;;;;;;;;;;;12.60;99.90;;;;;;5078390;28;20257;-89
2021/07/29 05:03:04;;;;;;;;;;;12.60;99.90;;;;;;5078408;28;19939;-88
2021/07/29 05:05:32;;;;;;;;;;;12.60;99.90;;;;;;5078443;28;19934;-88
2021/07/29 05:07:59;;;;;;;;;;;12.60;99.90;;;;;;5078113;28;20322;-88
2021/07/29 05:10:26;;;;;;;;;;;12.60;99.90;;;;;;5078259;28;20365;-88
2021/07/29 05:12:52;;;;;;;;;;;12.60;99.90;;;;;;5078115;28;20268;-88
2021/07/29 05:15:19;;;;;;;;;;;12.60;99.90;;;;;;5078272;28;19950;-88
2021/07/29 05:17:46;;;;;;;;;;;12.60;99.90;;;;;;5077919;28;20253;-88
2021/07/29 05:20:13;;;;;;;;;;;12.70;99.90;;;;;;5078251;28;19926;-88
2021/07/29 05:22:41;;;;;;;;;;;12.70;99.90;;;;;;5078054;28;19974;-88
2021/07/29 05:25:09;;;;;;;;;;;12.70;99.90;;;;;;5077935;28;19935;-88
2021/07/29 05:27:36;;;;;;;;;;;12.70;99.90;;;;;;5077931;28;19925;-88
2021/07/29 05:30:03;;;;;;;;;;;12.70;99.90;;;;;;5077983;28;19924;-88
2021/07/29 05:32:30;;;;;;;;;;;12.70;99.90;;;;;;5077730;28;20423;-88
2021/07/29 05:34:57;;;;;;;;;;;12.70;99.90;;;;;;5077707;28;19925;-88
2021/07/29 05:37:24;;;;;;;;;;;12.70;99.90;;;;;;5077625;28;19934;-88
2021/07/29 05:39:52;;;;;;;;;;;12.60;99.90;;;;;;5077645;28;19934;-88
2021/07/29 05:42:23;;;;;;;;;;;12.60;99.90;;;;;;5077545;28;20354;-89
2021/07/29 05:44:50;;;;;;;;;;;12.60;99.90;;;;;;5077837;28;19924;-89
2021/07/29 05:47:17;;;;;;;;;;;12.60;99.90;;;;;;5077128;28;19935;-88
2021/07/29 05:49:44;;;;;;;;;;;12.60;99.90;;;;;;5077398;28;19931;-88
2021/07/29 05:52:11;;;;;;;;;;;12.60;99.90;;;;;;5077636;28;19925;-89
2021/07/29 05:54:37;;;;;;;;;;;12.70;99.90;;;;;;5077727;28;19924;-88
2021/07/29 05:57:06;;;;;;;;;;;12.70;99.90;;;;;;5077481;28;19924;-88
2021/07/29 05:59:33;;;;;;;;;;;12.80;99.90;;;;;;5077295;28;20019;-87
2021/07/29 06:02:00;;;;;;;;;;;12.90;99.90;;;;;;5077440;28;19925;-88
2021/07/29 06:04:27;;;;;;;;;;;12.90;99.90;;;;;;5077462;28;19924;-88
2021/07/29 06:06:54;;;;;;;;;;;12.90;99.90;;;;;;5077284;28;20027;-88
2021/07/29 06:09:21;;;;;;;;;;;12.90;99.90;;;;;;5076934;28;19931;-87
2021/07/29 06:11:48;;;;;;;;;;;12.90;99.90;;;;;;5077235;28;19925;-88
2021/07/29 06:14:16;;;;;;;;;;;13.00;99.90;;;;;;5077079;28;19936;-87
2021/07/29 06:16:43;;;;;;;;;;;13.00;99.90;;;;;;5077057;28;19998;-87
2021/07/29 06:19:15;;;;;;;;;;;13.00;99.90;;;;;;5076910;28;19924;-87
2021/07/29 06:21:42;;;;;;;;;;;13.10;99.90;;;;;;5076812;28;19925;-87
2021/07/29 06:24:09;;;;;;;;;;;13.10;99.90;;;;;;5076671;28;19931;-88
2021/07/29 06:26:36;;;;;;;;;;;13.10;99.90;;;;;;5076785;28;20267;-87
2021/07/29 06:29:03;;;;;;;;;;;13.10;99.90;;;;;;5076714;28;19935;-87
2021/07/29 06:31:31;;;;;;;;;;;13.10;99.90;;;;;;5076504;28;19924;-87
2021/07/29 06:33:59;;;;;;;;;;;13.20;99.90;;;;;;5076571;28;20368;-87
2021/07/29 06:36:25;;;;;;;;;;;13.20;99.90;;;;;;5076466;28;19938;-87
2021/07/29 06:38:52;;;;;;;;;;;13.20;99.90;;;;;;5076685;28;19924;-87
2021/07/29 06:41:19;;;;;;;;;;;13.40;99.90;;;;;;5076528;28;19936;-87
2021/07/29 06:43:46;;;;;;;;;;;13.30;99.90;;;;;;5076406;28;19924;-86
2021/07/29 06:46:13;;;;;;;;;;;13.60;99.90;;;;;;5076225;28;19924;-86
2021/07/29 06:48:41;;;;;;;;;;;13.80;99.90;;;;;;5076085;28;19925;-86
2021/07/29 06:51:08;;;;;;;;;;;14.00;99.90;;;;;;5076021;28;19924;-86
2021/07/29 06:53:35;;;;;;;;;;;13.90;99.90;;;;;;5076503;28;19924;-86
2021/07/29 06:56:02;;;;;;;;;;;13.80;99.90;;;;;;5076041;28;19935;-86
2021/07/29 06:58:29;;;;;;;;;;;13.80;99.90;;;;;;5076019;28;19934;-86
2021/07/29 07:00:56;;;;;;;;;;;13.70;99.90;;;;;;5075121;28;19930;-86
2021/07/29 07:03:24;;;;;;;;;;;13.60;99.90;;;;;;5076043;28;19935;-86
2021/07/29 07:05:52;;;;;;;;;;;13.60;99.90;;;;;;5075920;28;19932;-86
2021/07/29 07:08:19;;;;;;;;;;;13.60;99.90;;;;;;5075617;28;19939;-86
2021/07/29 07:10:46;;;;;;;;;;;13.60;99.90;;;;;;5075671;28;19931;-86
2021/07/29 07:13:13;;;;;;;;;;;13.60;99.90;;;;;;5075991;28;19924;-86
2021/07/29 07:15:40;;;;;;;;;;;13.60;99.90;;;;;;5075723;28;19931;-86
2021/07/29 07:18:07;;;;;;;;;;;13.60;99.90;;;;;;5075533;28;19924;-85
2021/07/29 07:20:34;;;;;;;;;;;13.60;99.90;;;;;;5075613;28;20031;-85
2021/07/29 07:23:02;;;;;;;;;;;13.60;99.90;;;;;;5075683;28;19925;-86
2021/07/29 07:25:29;;;;;;;;;;;13.70;99.90;;;;;;5075846;28;19925;-86
2021/07/29 07:27:55;;;;;;;;;;;13.70;99.90;;;;;;5075780;28;19939;-86
2021/07/29 07:30:22;;;;;;;;;;;13.70;99.90;;;;;;5075660;28;19924;-86
2021/07/29 07:32:49;;;;;;;;;;;13.60;99.90;;;;;;5075634;28;19925;-86
2021/07/29 07:35:16;;;;;;;;;;;13.70;99.90;;;;;;5075326;28;19924;-86
2021/07/29 07:37:43;;;;;;;;;;;13.70;99.90;;;;;;5075540;28;20253;-86
2021/07/29 07:40:12;;;;;;;;;;;13.70;99.90;;;;;;5075294;28;19971;-85
2021/07/29 07:42:39;;;;;;;;;;;13.70;99.90;;;;;;5075470;28;19931;-87
2021/07/29 07:45:06;;;;;;;;;;;13.70;99.90;;;;;;5075411;28;19929;-85
2021/07/29 07:47:35;;;;;;;;;;;13.80;99.90;;;;;;5075182;28;19934;-85
2021/07/29 07:50:02;;;;;;;;;;;13.80;99.90;;;;;;5075166;28;19928;-85
2021/07/29 07:52:29;;;;;;;;;;;13.90;99.90;;;;;;5075245;28;19925;-85
2021/07/29 07:54:57;;;;;;;;;;;14.00;99.90;;;;;;5075218;28;19928;-85
2021/07/29 07:57:26;;;;;;;;;;;14.00;99.90;;;;;;5075137;28;19940;-85
2021/07/29 07:59:56;;;;;;;;;;;14.00;99.90;;;;;;5075076;28;19924;-85
2021/07/29 08:02:22;;;;;;;;;;;14.00;99.90;;;;;;5075168;28;20253;-85
2021/07/29 08:04:49;;;;;;;;;;;14.10;99.90;;;;;;5075310;28;20268;-85
2021/07/29 08:07:16;;;;;;;;;;;14.10;99.90;;;;;;5074754;28;20364;-85
2021/07/29 08:09:43;;;;;;;;;;;14.00;99.90;;;;;;5074333;28;19924;-85
2021/07/29 08:12:10;;;;;;;;;;;14.10;99.90;;;;;;5074824;28;19924;-85
2021/07/29 08:14:38;;;;;;;;;;;14.10;99.90;;;;;;5075014;28;19924;-85
2021/07/29 08:17:05;;;;;;;;;;;14.10;99.90;;;;;;5075142;28;19928;-85
2021/07/29 08:19:32;;;;;;;;;;;14.20;99.90;;;;;;5074933;28;19935;-85
2021/07/29 08:21:59;;;;;;;;;;;14.10;99.90;;;;;;5075055;28;19924;-84
2021/07/29 08:24:26;;;;;;;;;;;14.20;99.90;;;;;;5075171;28;19939;-85
2021/07/29 08:26:53;;;;;;;;;;;14.20;99.90;;;;;;5074870;28;19935;-85
2021/07/29 08:29:20;;;;;;;;;;;14.20;99.90;;;;;;5074689;28;19931;-85
2021/07/29 08:31:48;;;;;;;;;;;14.20;99.90;;;;;;5074663;28;19928;-85
2021/07/29 08:34:15;;;;;;;;;;;14.20;99.90;;;;;;5074938;28;19935;-85
2021/07/29 08:36:42;;;;;;;;;;;14.20;99.90;;;;;;5075201;28;19924;-85
2021/07/29 08:39:09;;;;;;;;;;;14.20;99.90;;;;;;5074957;28;19925;-85
2021/07/29 08:41:35;;;;;;;;;;;14.20;99.90;;;;;;5074743;28;19928;-85
2021/07/29 08:44:03;;;;;;;;;;;14.20;99.90;;;;;;5074622;28;19929;-85
2021/07/29 08:46:33;;;;;;;;;;;14.30;99.90;;;;;;5074899;28;19924;-85
2021/07/29 08:49:02;;;;;;;;;;;14.30;99.90;;;;;;5074835;28;20011;-85
2021/07/29 08:51:29;;;;;;;;;;;14.30;99.90;;;;;;5074714;28;20320;-84
2021/07/29 08:53:57;;;;;;;;;;;14.30;99.90;;;;;;5074553;28;20361;-85
2021/07/29 08:56:24;;;;;;;;;;;14.40;99.90;;;;;;5074634;28;19928;-85
2021/07/29 08:58:51;;;;;;;;;;;14.40;99.90;;;;;;5074455;28;19924;-84
2021/07/29 09:01:18;;;;;;;;;;;14.40;99.90;;;;;;5074473;28;19925;-85
2021/07/29 09:03:45;;;;;;;;;;;14.40;99.90;;;;;;5074438;28;19934;-84
2021/07/29 09:06:13;;;;;;;;;;;14.40;99.90;;;;;;5074551;28;19948;-84
2021/07/29 09:08:44;;;;;;;;;;;14.40;99.90;;;;;;5074377;28;19925;-84
2021/07/29 09:11:40;;;;;;;;;;;14.40;99.90;;;;;;5074528;28;19934;-84
2021/07/29 09:14:09;;;;;;;;;;;14.40;99.90;;;;;;5013295;28;19937;-84
2021/07/29 09:16:38;;;;;;;;;;;14.40;99.90;;;;;;5013102;28;20453;-84
2021/07/29 09:19:05;;;;;;;;;;;14.50;99.90;;;;;;5012993;28;19929;-84
2021/07/29 09:21:33;;;;;;;;;;;14.50;99.90;;;;;;5013095;28;19925;-84
2021/07/29 09:24:03;;;;;;;;;;;14.50;99.90;;;;;;5015539;28;19933;-84
2021/07/29 09:26:30;;;;;;;;;;;14.50;99.90;;;;;;5016555;28;19951;-84
2021/07/29 09:28:57;;;;;;;;;;;14.60;99.90;;;;;;5016513;28;19936;-85
2021/07/29 09:31:24;;;;;;;;;;;14.60;99.90;;;;;;5016472;28;19940;-85
2021/07/29 09:33:55;;;;;;;;;;;14.70;99.90;;;;;;5016471;28;19926;-85
2021/07/29 09:36:22;;;;;;;;;;;14.70;99.90;;;;;;5016119;28;20362;-84
2021/07/29 09:38:50;;;;;;;;;;;14.70;99.90;;;;;;5016268;28;20004;-85
2021/07/29 09:41:23;;;;;;;;;;;14.70;99.90;;;;;;5016272;28;20029;-85
2021/07/29 09:43:51;;;;;;;;;;;14.70;99.90;;;;;;5016262;28;19930;-85
2021/07/29 09:46:18;;;;;;;;;;;14.70;99.90;;;;;;5016190;28;20355;-84
2021/07/29 09:48:45;;;;;;;;;;;14.70;99.90;;;;;;5059174;28;19938;-84
2021/07/29 09:51:12;;;;;;;;;;;14.60;99.90;;;;;;5077638;28;19955;-84
2021/07/29 09:53:39;;;;;;;;;;;14.60;99.90;;;;;;5077495;28;20281;-84
2021/07/29 09:56:08;;;;;;;;;;;14.50;99.90;;;;;;5077283;28;19934;-84
2021/07/29 09:58:35;;;;;;;;;;;14.40;99.90;;;;;;5077252;28;19924;-84
2021/07/29 10:01:02;;;;;;;;;;;14.40;99.90;;;;;;5077499;28;19925;-84
2021/07/29 10:03:29;;;;;;;;;;;14.40;99.90;;;;;;5076815;28;19952;-84
2021/07/29 10:05:58;;;;;;;;;;;15.80;99.90;;;;;;5076857;28;19931;-84
2021/07/29 10:08:27;;;;;;;;;;;14.50;99.90;;;;;;5076650;28;19925;-84
2021/07/29 10:10:54;;;;;;;;;;;14.40;99.90;;;;;;5077215;28;19928;-84
2021/07/29 10:13:33;;;;;;;;;;;14.40;99.90;;;;;;5077049;28;19930;-84
2021/07/29 10:16:00;;;;;;;;;;;14.50;99.90;;;;;;5076914;28;19931;-85
2021/07/29 10:18:26;;;;;;;;;;;14.60;99.90;;;;;;5077046;28;19928;-85
2021/07/29 10:21:21;;;;;;;;;;;14.60;99.90;;;;;;5076882;28;19925;-85
2021/07/29 10:23:53;;;;;;;;;;;14.70;99.90;;;;;;5076852;28;20292;-85
2021/07/29 10:26:20;;;;;;;;;;;14.70;99.90;;;;;;5076752;28;20350;-84
2021/07/29 10:28:48;;;;;;;;;;;14.80;99.90;;;;;;5076875;28;20405;-85
2021/07/29 10:31:16;;;;;;;;;;;14.80;99.90;;;;;;5076572;28;19924;-84
2021/07/29 10:33:43;;;;;;;;;;;14.90;99.90;;;;;;5076691;28;20339;-84
2021/07/29 10:36:25;;;;;;;;;;;14.90;99.90;;;;;;5076465;28;19925;-84
2021/07/29 10:38:52;;;;;;;;;;;15.00;99.90;;;;;;5076652;28;19934;-84
2021/07/29 10:41:37;;;;;;;;;;;15.00;99.90;;;;;;5076370;28;19932;-84
2021/07/29 10:44:07;;;;;;;;;;;15.10;99.90;;;;;;5076388;28;19931;-84
2021/07/29 10:46:48;;;;;;;;;;;15.20;99.90;;;;;;5076635;28;20328;-84
2021/07/29 10:49:16;;;;;;;;;;;15.20;99.90;;;;;;5062540;28;19924;-84
2021/07/29 10:52:01;;;;;;;;;;;15.20;99.90;;;;;;5076037;28;20011;-84
2021/07/29 10:54:29;;;;;;;;;;;15.20;99.90;;;;;;5075996;28;19924;-84
2021/07/29 10:56:56;;;;;;;;;;;15.20;99.90;;;;;;5076265;28;19932;-84
2021/07/29 10:59:24;;;;;;;;;;;15.20;99.90;;;;;;5076018;28;19924;-83
2021/07/29 11:01:52;;;;;;;;;;;15.20;99.90;;;;;;5075971;28;19935;-84
2021/07/29 11:04:19;;;;;;;;;;;15.20;99.90;;;;;;5075941;28;19924;-83
2021/07/29 11:06:54;;;;;;;;;;;15.30;99.90;;;;;;5076339;28;19925;-84
2021/07/29 11:09:21;;;;;;;;;;;15.30;99.90;;;;;;5075714;28;19924;-84
2021/07/29 11:11:49;;;;;;;;;;;15.40;99.90;;;;;;5075686;28;19930;-83
2021/07/29 11:14:17;;;;;;;;;;;15.50;99.90;;;;;;5075931;28;20231;-84
2021/07/29 11:16:45;;;;;;;;;;;15.60;99.90;;;;;;5075527;28;19935;-83
2021/07/29 11:19:12;;;;;;;;;;;15.70;99.90;;;;;;5075836;28;19985;-83
2021/07/29 11:21:39;;;;;;;;;;;15.80;99.90;;;;;;5075806;28;19931;-82
2021/07/29 11:24:06;;;;;;;;;;;15.90;99.90;;;;;;5075709;28;19925;-83
2021/07/29 11:26:42;;;;;;;;;;;16.00;99.90;;;;;;5075679;28;19935;-83
2021/07/29 11:29:09;;;;;;;;;;;16.00;99.90;;;;;;5075370;28;20306;-83
2021/07/29 11:31:35;;;;;;;;;;;16.00;99.90;;;;;;5075334;28;20261;-83
2021/07/29 11:34:04;;;;;;;;;;;16.00;99.90;;;;;;5075718;28;20264;-84
2021/07/29 11:36:31;;;;;;;;;;;15.90;99.90;;;;;;5075505;28;19931;-83
2021/07/29 11:39:00;;;;;;;;;;;15.80;99.90;;;;;;5075216;28;19935;-83
2021/07/29 11:41:27;;;;;;;;;;;15.80;99.90;;;;;;5075328;28;19924;-83
2021/07/29 11:43:54;;;;;;;;;;;15.90;99.90;;;;;;5075675;28;19924;-83
2021/07/29 11:46:21;;;;;;;;;;;16.00;99.90;;;;;;5074730;28;19943;-83
2021/07/29 11:48:48;;;;;;;;;;;16.20;99.90;;;;;;5074915;28;19928;-83
2021/07/29 11:51:16;;;;;;;;;;;16.40;99.90;;;;;;5074834;28;19924;-83
2021/07/29 11:53:44;;;;;;;;;;;16.50;99.90;;;;;;5075218;28;19925;-82
2021/07/29 11:56:11;;;;;;;;;;;16.70;99.90;;;;;;5075116;28;19924;-81
2021/07/29 11:58:38;;;;;;;;;;;16.90;99.90;;;;;;5075320;28;19938;-82
2021/07/29 12:01:09;;;;;;;;;;;17.00;99.90;;;;;;5075094;28;19925;-82
2021/07/29 12:03:36;;;;;;;;;;;17.10;99.90;;;;;;5074998;28;19934;-82
2021/07/29 12:06:03;;;;;;;;;;;17.10;99.90;;;;;;5075094;28;19924;-82
2021/07/29 12:08:31;;;;;;;;;;;17.10;99.90;;;;;;5075099;28;19931;-82
2021/07/29 12:10:58;;;;;;;;;;;17.10;99.90;;;;;;5074811;28;19928;-81
2021/07/29 12:13:25;;;;;;;;;;;17.10;99.90;;;;;;5075004;28;19928;-82
2021/07/29 12:15:52;;;;;;;;;;;17.00;99.90;;;;;;5075161;28;19935;-81
2021/07/29 12:18:19;;;;;;;;;;;17.00;99.90;;;;;;5075125;28;19934;-82
2021/07/29 12:20:46;;;;;;;;;;;17.00;99.90;;;;;;5075236;28;20011;-82
2021/07/29 12:23:14;;;;;;;;;;;16.90;99.90;;;;;;5074817;28;19937;-82
2021/07/29 12:25:42;;;;;;;;;;;17.00;99.90;;;;;;5074795;28;19932;-82
2021/07/29 12:28:09;;;;;;;;;;;17.00;99.90;;;;;;5074961;28;20346;-82
2021/07/29 12:30:38;;;;;;;;;;;16.90;99.90;;;;;;5074638;28;19925;-82
2021/07/29 12:33:05;;;;;;;;;;;16.90;99.90;;;;;;5074739;28;19958;-82
2021/07/29 12:35:32;;;;;;;;;;;16.90;99.90;;;;;;5074957;28;20263;-81
2021/07/29 12:37:59;;;;;;;;;;;16.80;99.90;;;;;;5074755;28;20265;-81
2021/07/29 12:40:27;;;;;;;;;;;16.80;99.90;;;;;;5074732;28;19933;-82
2021/07/29 12:42:55;;;;;;;;;;;16.70;99.90;;;;;;5074675;28;19924;-82
2021/07/29 12:45:22;;;;;;;;;;;16.60;99.90;;;;;;5074532;28;19924;-82
2021/07/29 12:48:04;;;;;;;;;;;16.60;99.90;;;;;;5074358;28;20265;-82
2021/07/29 12:50:36;;;;;;;;;;;16.50;99.90;;;;;;5074825;28;19924;-82
2021/07/29 12:53:13;;;;;;;;;;;16.50;99.90;;;;;;5074658;28;19924;-82
2021/07/29 12:55:40;;;;;;;;;;;16.50;99.90;;;;;;5074777;28;20360;-82
2021/07/29 12:58:09;;;;;;;;;;;16.50;99.90;;;;;;5075894;28;19924;-81
2021/07/29 13:00:37;;;;;;;;;;;16.60;99.90;;;;;;5078448;28;19924;-81
2021/07/29 13:03:04;;;;;;;;;;;16.60;99.90;;;;;;5077813;28;19931;-82
2021/07/29 13:05:30;;;;;;;;;;;16.50;99.90;;;;;;5077967;28;19924;-81
2021/07/29 13:07:58;;;;;;;;;;;16.50;99.90;;;;;;5078076;28;19931;-82
2021/07/29 13:10:24;;;;;;;;;;;16.50;99.90;;;;;;5078286;28;19928;-82
2021/07/29 13:12:53;;;;;;;;;;;16.40;99.90;;;;;;5078243;28;19924;-81
2021/07/29 13:15:21;;;;;;;;;;;16.40;99.90;;;;;;5078228;28;19928;-81
2021/07/29 13:17:48;;;;;;;;;;;16.30;99.90;;;;;;5077979;28;19925;-80
2021/07/29 13:20:15;;;;;;;;;;;16.30;99.90;;;;;;5077997;28;19924;-82
2021/07/29 13:22:42;;;;;;;;;;;16.20;99.90;;;;;;5078179;28;19961;-81
2021/07/29 13:25:09;;;;;;;;;;;16.20;99.90;;;;;;5077957;28;19924;-82
2021/07/29 13:27:36;;;;;;;;;;;16.20;99.90;;;;;;5078258;28;19930;-82
2021/07/29 13:30:03;;;;;;;;;;;16.20;99.90;;;;;;5077807;28;19931;-81
2021/07/29 13:32:31;;;;;;;;;;;16.20;99.90;;;;;;5077731;28;20385;-80
2021/07/29 13:34:58;;;;;;;;;;;16.20;99.90;;;;;;5077569;28;19935;-81
2021/07/29 13:37:25;;;;;;;;;;;16.10;99.90;;;;;;5077651;28;19925;-80
2021/07/29 13:39:52;;;;;;;;;;;16.00;99.90;;;;;;5078060;28;19931;-81
2021/07/29 13:42:18;;;;;;;;;;;15.90;99.90;;;;;;5077740;28;19925;-81
2021/07/29 13:44:54;;;;;;;;;;;15.70;99.90;;;;;;5076776;28;19928;-81
2021/07/29 13:47:21;;;;;;;;;;;15.50;99.90;;;;;;5077471;28;20353;-77
2021/07/29 13:49:49;;;;;;;;;;;15.40;99.90;;;;;;5077524;28;19931;-81
2021/07/29 13:52:16;;;;;;;;;;;15.20;99.90;;;;;;5077704;28;19924;-80
2021/07/29 13:54:43;;;;;;;;;;;15.20;99.90;;;;;;5077398;28;19931;-81
2021/07/29 13:57:10;;;;;;;;;;;15.20;99.90;;;;;;5077585;28;20267;-80
2021/07/29 13:59:37;;;;;;;;;;;15.20;99.90;;;;;;5077348;28;19925;-83
2021/07/29 14:02:04;;;;;;;;;;;15.20;99.90;;;;;;5077337;28;19928;-81
2021/07/29 14:04:30;;;;;;;;;;;15.20;99.90;;;;;;5077199;28;19928;-79
2021/07/29 14:06:59;;;;;;;;;;;15.30;99.90;;;;;;5077336;28;19924;-81
2021/07/29 14:09:26;;;;;;;;;;;15.30;99.90;;;;;;5076505;28;20002;-82
2021/07/29 14:11:52;;;;;;;;;;;15.30;99.90;;;;;;5080379;28;19935;-82
2021/07/29 14:14:19;;;;;;;;;;;15.40;99.90;;;;;;5077016;28;19924;-80
2021/07/29 14:16:46;;;;;;;;;;;15.40;99.90;;;;;;5076779;28;19924;-80
2021/07/29 14:19:13;;;;;;;;;;;15.30;99.90;;;;;;5077061;28;19962;-82
2021/07/29 14:24:23;;;;;;;;;;;15.30;99.90;;;;;;5076663;28;19924;-81